ASA065 PAPG-PAJN
Flight info
| Callsign | ASA065 |
|---|---|
| Flight time | 0h 30m |
| Altitude | 20000 |
| Route | PTRSG2 ZARUT SSR |
| Aircraft | B737/M-SDE2E3FGHIRWXY/LB1 |
Departure
| Time | 2026-04-20 20:17 |
|---|---|
| Airport | Petersburg James A Johnson Airport (PAPG) |
Arrival
| Time | 2026-04-20 20:47 |
|---|---|
| Airport | Juneau International Airport (PAJN) |
| Time | Latitude | Longitude | Altitude | Speed | Heading |
|---|---|---|---|---|---|
| 2026-04-20 19:54 | 56.80564 | -132.93304 | 117 ft | 0 kts | 71° |
| 2026-04-20 20:09 | 56.80562 | -132.93319 | 116 ft | 4 kts | 78° |
| 2026-04-20 20:09 | 56.80562 | -132.93355 | 118 ft | 4 kts | 151° |
| 2026-04-20 20:09 | 56.80571 | -132.93358 | 120 ft | 3 kts | 213° |
| 2026-04-20 20:11 | 56.80565 | -132.93365 | 118 ft | 1 kts | 213° |
| 2026-04-20 20:12 | 56.80550 | -132.93389 | 121 ft | 5 kts | 222° |
| 2026-04-20 20:12 | 56.80514 | -132.93420 | 117 ft | 7 kts | 182° |
| 2026-04-20 20:12 | 56.80466 | -132.93391 | 119 ft | 8 kts | 159° |
| 2026-04-20 20:13 | 56.80356 | -132.93532 | 116 ft | 15 kts | 251° |
| 2026-04-20 20:13 | 56.80318 | -132.93735 | 120 ft | 19 kts | 251° |
| 2026-04-20 20:13 | 56.80270 | -132.93982 | 118 ft | 22 kts | 250° |
| 2026-04-20 20:13 | 56.80218 | -132.94257 | 121 ft | 25 kts | 250° |
| 2026-04-20 20:14 | 56.80158 | -132.94573 | 117 ft | 28 kts | 251° |
| 2026-04-20 20:14 | 56.80095 | -132.94901 | 120 ft | 27 kts | 251° |
| 2026-04-20 20:14 | 56.80035 | -132.95209 | 122 ft | 25 kts | 251° |
| 2026-04-20 20:14 | 56.79981 | -132.95495 | 122 ft | 23 kts | 251° |
| 2026-04-20 20:15 | 56.79929 | -132.95767 | 122 ft | 22 kts | 251° |
| 2026-04-20 20:15 | 56.79881 | -132.96016 | 120 ft | 14 kts | 245° |
| 2026-04-20 20:15 | 56.79851 | -132.96088 | 119 ft | 3 kts | 233° |
| 2026-04-20 20:15 | 56.79856 | -132.96098 | 120 ft | 1 kts | 346° |
| 2026-04-20 20:16 | 56.79867 | -132.96077 | 119 ft | 4 kts | 57° |
| 2026-04-20 20:16 | 56.79924 | -132.95787 | 119 ft | 60 kts | 71° |
| 2026-04-20 20:16 | 56.80154 | -132.94590 | 119 ft | 137 kts | 70° |
| 2026-04-20 20:16 | 56.80528 | -132.92638 | 354 ft | 177 kts | 70° |
| 2026-04-20 20:17 | 56.81057 | -132.90722 | 1495 ft | 164 kts | 44° |
| 2026-04-20 20:17 | 56.82090 | -132.89852 | 2285 ft | 175 kts | 3° |
| 2026-04-20 20:17 | 56.83405 | -132.90102 | 2679 ft | 207 kts | 349° |
| 2026-04-20 20:17 | 56.84962 | -132.90064 | 2988 ft | 242 kts | 5° |
| 2026-04-20 20:18 | 56.86701 | -132.89756 | 3664 ft | 259 kts | 3° |
| 2026-04-20 20:18 | 56.88501 | -132.89503 | 4780 ft | 260 kts | 2° |
| 2026-04-20 20:18 | 56.90320 | -132.89280 | 5790 ft | 264 kts | 1° |
| 2026-04-20 20:18 | 56.92167 | -132.89076 | 6778 ft | 267 kts | 1° |
| 2026-04-20 20:19 | 56.94034 | -132.88951 | 7751 ft | 269 kts | 351° |
| 2026-04-20 20:19 | 56.95711 | -132.90170 | 8752 ft | 258 kts | 315° |
| 2026-04-20 20:19 | 56.96748 | -132.92730 | 9932 ft | 248 kts | 294° |
| 2026-04-20 20:19 | 56.97302 | -132.95741 | 10665 ft | 258 kts | 282° |
| 2026-04-20 20:20 | 56.97658 | -132.99134 | 10924 ft | 283 kts | 279° |
| 2026-04-20 20:20 | 56.97979 | -133.02747 | 11653 ft | 290 kts | 278° |
| 2026-04-20 20:20 | 56.98298 | -133.06409 | 12570 ft | 292 kts | 278° |
| 2026-04-20 20:20 | 56.98625 | -133.10091 | 13546 ft | 294 kts | 278° |
| 2026-04-20 20:21 | 56.98962 | -133.13808 | 14497 ft | 297 kts | 277° |
| 2026-04-20 20:21 | 56.99306 | -133.17556 | 15432 ft | 297 kts | 278° |
| 2026-04-20 20:21 | 56.99646 | -133.21260 | 16573 ft | 292 kts | 277° |
| 2026-04-20 20:21 | 56.99984 | -133.24898 | 17771 ft | 286 kts | 277° |
| 2026-04-20 20:22 | 57.00319 | -133.28465 | 18786 ft | 285 kts | 277° |
| 2026-04-20 20:22 | 57.00663 | -133.32180 | 19124 ft | 303 kts | 277° |
| 2026-04-20 20:22 | 57.01021 | -133.36050 | 19505 ft | 310 kts | 277° |
| 2026-04-20 20:22 | 57.01381 | -133.39928 | 19871 ft | 308 kts | 277° |
| 2026-04-20 20:23 | 57.01747 | -133.43896 | 20083 ft | 324 kts | 277° |
| 2026-04-20 20:23 | 57.02125 | -133.48015 | 20090 ft | 329 kts | 277° |
| 2026-04-20 20:23 | 57.02508 | -133.52174 | 20059 ft | 331 kts | 277° |
| 2026-04-20 20:23 | 57.02890 | -133.56341 | 20091 ft | 331 kts | 277° |
| 2026-04-20 20:24 | 57.03272 | -133.60515 | 20091 ft | 332 kts | 277° |
| 2026-04-20 20:24 | 57.03652 | -133.64692 | 20103 ft | 332 kts | 277° |
| 2026-04-20 20:24 | 57.04031 | -133.68888 | 20103 ft | 332 kts | 277° |
| 2026-04-20 20:24 | 57.04411 | -133.73073 | 20090 ft | 333 kts | 278° |
| 2026-04-20 20:25 | 57.05186 | -133.77098 | 20108 ft | 339 kts | 293° |
| 2026-04-20 20:25 | 57.06461 | -133.80712 | 20105 ft | 345 kts | 302° |
| 2026-04-20 20:25 | 57.08188 | -133.83853 | 20107 ft | 356 kts | 314° |
| 2026-04-20 20:25 | 57.10192 | -133.86573 | 20108 ft | 359 kts | 318° |
| 2026-04-20 20:26 | 57.12266 | -133.89139 | 20105 ft | 359 kts | 319° |
| 2026-04-20 20:26 | 57.14347 | -133.91657 | 20103 ft | 358 kts | 319° |
| 2026-04-20 20:26 | 57.16425 | -133.94178 | 20089 ft | 357 kts | 319° |
| 2026-04-20 20:26 | 57.18489 | -133.96706 | 20086 ft | 356 kts | 319° |
| 2026-04-20 20:27 | 57.20539 | -133.99244 | 20088 ft | 355 kts | 318° |
| 2026-04-20 20:27 | 57.22582 | -134.01794 | 20091 ft | 354 kts | 318° |
| 2026-04-20 20:27 | 57.24622 | -134.04355 | 20091 ft | 355 kts | 318° |
| 2026-04-20 20:27 | 57.26660 | -134.06925 | 20087 ft | 355 kts | 318° |
| 2026-04-20 20:28 | 57.28703 | -134.09510 | 20082 ft | 356 kts | 318° |
| 2026-04-20 20:28 | 57.30748 | -134.12102 | 20082 ft | 356 kts | 318° |
| 2026-04-20 20:28 | 57.32792 | -134.14695 | 20101 ft | 357 kts | 318° |
| 2026-04-20 20:28 | 57.34841 | -134.17303 | 20122 ft | 358 kts | 318° |
| 2026-04-20 20:29 | 57.36892 | -134.19916 | 20086 ft | 358 kts | 318° |
| 2026-04-20 20:29 | 57.38943 | -134.22512 | 20096 ft | 356 kts | 318° |
| 2026-04-20 20:29 | 57.40986 | -134.25116 | 20100 ft | 357 kts | 317° |
| 2026-04-20 20:29 | 57.43027 | -134.27743 | 20083 ft | 357 kts | 317° |
| 2026-04-20 20:30 | 57.45072 | -134.30358 | 20094 ft | 357 kts | 318° |
| 2026-04-20 20:30 | 57.47090 | -134.32958 | 20098 ft | 359 kts | 318° |
| 2026-04-20 20:30 | 57.49149 | -134.35590 | 20094 ft | 358 kts | 318° |
| 2026-04-20 20:30 | 57.51201 | -134.38222 | 20071 ft | 358 kts | 318° |
| 2026-04-20 20:31 | 57.53244 | -134.40851 | 20078 ft | 357 kts | 318° |
| 2026-04-20 20:31 | 57.55284 | -134.43480 | 20063 ft | 356 kts | 318° |
| 2026-04-20 20:31 | 57.57317 | -134.46104 | 20073 ft | 355 kts | 317° |
| 2026-04-20 20:31 | 57.59348 | -134.48730 | 20078 ft | 355 kts | 318° |
| 2026-04-20 20:32 | 57.61352 | -134.51320 | 20067 ft | 344 kts | 318° |
| 2026-04-20 20:32 | 57.63274 | -134.53800 | 20053 ft | 329 kts | 317° |
| 2026-04-20 20:32 | 57.65151 | -134.56221 | 20062 ft | 329 kts | 317° |
| 2026-04-20 20:32 | 57.67035 | -134.58665 | 20053 ft | 330 kts | 317° |
| 2026-04-20 20:33 | 57.68927 | -134.61123 | 19779 ft | 335 kts | 317° |
| 2026-04-20 20:33 | 57.70829 | -134.63639 | 19326 ft | 337 kts | 317° |
| 2026-04-20 20:33 | 57.72734 | -134.66135 | 18815 ft | 332 kts | 318° |
| 2026-04-20 20:33 | 57.74619 | -134.68585 | 18252 ft | 329 kts | 318° |
| 2026-04-20 20:34 | 57.76492 | -134.71030 | 17611 ft | 327 kts | 318° |
| 2026-04-20 20:34 | 57.78345 | -134.73457 | 17053 ft | 324 kts | 318° |
| 2026-04-20 20:34 | 57.80188 | -134.75883 | 16364 ft | 325 kts | 318° |
| 2026-04-20 20:34 | 57.82033 | -134.78323 | 15784 ft | 323 kts | 318° |
| 2026-04-20 20:35 | 57.83857 | -134.80746 | 15255 ft | 320 kts | 318° |
| 2026-04-20 20:35 | 57.85662 | -134.83154 | 14688 ft | 317 kts | 318° |
| 2026-04-20 20:35 | 57.87455 | -134.85561 | 14105 ft | 316 kts | 318° |
| 2026-04-20 20:35 | 57.89236 | -134.87968 | 13519 ft | 314 kts | 318° |
| 2026-04-20 20:36 | 57.90992 | -134.90281 | 13233 ft | 310 kts | 319° |
| 2026-04-20 20:36 | 57.92747 | -134.92654 | 12957 ft | 312 kts | 318° |
| 2026-04-20 20:36 | 57.94513 | -134.95103 | 12743 ft | 317 kts | 316° |
| 2026-04-20 20:36 | 57.96209 | -134.97761 | 12413 ft | 319 kts | 320° |
| 2026-04-20 20:37 | 57.98127 | -134.99952 | 11804 ft | 325 kts | 324° |
| 2026-04-20 20:37 | 58.00050 | -135.02247 | 10969 ft | 328 kts | 322° |
| 2026-04-20 20:37 | 58.01915 | -135.04637 | 10641 ft | 316 kts | 321° |
| 2026-04-20 20:37 | 58.03684 | -135.06966 | 10415 ft | 302 kts | 321° |
| 2026-04-20 20:38 | 58.05364 | -135.09196 | 10297 ft | 288 kts | 320° |
| 2026-04-20 20:38 | 58.06959 | -135.11328 | 10187 ft | 273 kts | 320° |
| 2026-04-20 20:38 | 58.08463 | -135.13339 | 9918 ft | 259 kts | 320° |
| 2026-04-20 20:38 | 58.09929 | -135.15303 | 9293 ft | 258 kts | 321° |
| 2026-04-20 20:39 | 58.11629 | -135.16488 | 8629 ft | 271 kts | 351° |
| 2026-04-20 20:39 | 58.13521 | -135.15991 | 8094 ft | 279 kts | 13° |
| 2026-04-20 20:39 | 58.15267 | -135.14301 | 7536 ft | 284 kts | 27° |
| 2026-04-20 20:39 | 58.16915 | -135.12251 | 6998 ft | 283 kts | 29° |
| 2026-04-20 20:40 | 58.18572 | -135.10183 | 6395 ft | 288 kts | 29° |
| 2026-04-20 20:40 | 58.20248 | -135.08122 | 6046 ft | 285 kts | 29° |
| 2026-04-20 20:40 | 58.21929 | -135.06075 | 5454 ft | 287 kts | 28° |
| 2026-04-20 20:40 | 58.23729 | -135.04667 | 4975 ft | 276 kts | 6° |
| 2026-04-20 20:41 | 58.25567 | -135.04125 | 4841 ft | 258 kts | 4° |
| 2026-04-20 20:41 | 58.27306 | -135.03594 | 4684 ft | 248 kts | 4° |
| 2026-04-20 20:41 | 58.28964 | -135.03065 | 4584 ft | 234 kts | 4° |
| 2026-04-20 20:41 | 58.30525 | -135.02556 | 4452 ft | 221 kts | 4° |
| 2026-04-20 20:42 | 58.31989 | -135.02074 | 4363 ft | 206 kts | 4° |
| 2026-04-20 20:42 | 58.33375 | -135.01617 | 4177 ft | 198 kts | 4° |
| 2026-04-20 20:42 | 58.34709 | -135.00992 | 3950 ft | 203 kts | 26° |
| 2026-04-20 20:42 | 58.35619 | -134.98970 | 3777 ft | 206 kts | 74° |
| 2026-04-20 20:43 | 58.35775 | -134.96288 | 3614 ft | 204 kts | 92° |
| 2026-04-20 20:43 | 58.35765 | -134.93560 | 3375 ft | 207 kts | 94° |
| 2026-04-20 20:43 | 58.35752 | -134.90828 | 3118 ft | 205 kts | 93° |
| 2026-04-20 20:43 | 58.35748 | -134.88152 | 2913 ft | 199 kts | 93° |
| 2026-04-20 20:44 | 58.35749 | -134.85542 | 2683 ft | 197 kts | 94° |
| 2026-04-20 20:44 | 58.35748 | -134.82954 | 2455 ft | 197 kts | 94° |
| 2026-04-20 20:44 | 58.35753 | -134.80331 | 2167 ft | 193 kts | 93° |
| 2026-04-20 20:44 | 58.35760 | -134.77858 | 1906 ft | 181 kts | 94° |
| 2026-04-20 20:45 | 58.35767 | -134.75608 | 1733 ft | 161 kts | 94° |
| 2026-04-20 20:45 | 58.35772 | -134.73521 | 1458 ft | 153 kts | 94° |
| 2026-04-20 20:45 | 58.35806 | -134.71532 | 1182 ft | 149 kts | 85° |
| 2026-04-20 20:45 | 58.36047 | -134.69593 | 1002 ft | 151 kts | 77° |
| 2026-04-20 20:46 | 58.36288 | -134.67627 | 862 ft | 154 kts | 82° |
| 2026-04-20 20:46 | 58.36329 | -134.65635 | 751 ft | 150 kts | 97° |
| 2026-04-20 20:46 | 58.36240 | -134.63634 | 591 ft | 153 kts | 99° |
| 2026-04-20 20:46 | 58.36074 | -134.61714 | 394 ft | 143 kts | 110° |
| 2026-04-20 20:47 | 58.35806 | -134.59890 | 93 ft | 141 kts | 104° |
| 2026-04-20 20:47 | 58.35576 | -134.58217 | 32 ft | 118 kts | 105° |
| 2026-04-20 20:47 | 58.35405 | -134.56984 | 34 ft | 70 kts | 104° |
| 2026-04-20 20:47 | 58.35338 | -134.56499 | 34 ft | 30 kts | 105° |
| 2026-04-20 20:48 | 58.35286 | -134.56132 | 31 ft | 28 kts | 105° |
| 2026-04-20 20:48 | 58.35238 | -134.55787 | 31 ft | 26 kts | 104° |
| 2026-04-20 20:48 | 58.35196 | -134.55489 | 30 ft | 18 kts | 104° |
| 2026-04-20 20:48 | 58.35211 | -134.55325 | 31 ft | 12 kts | 28° |
| 2026-04-20 20:49 | 58.35288 | -134.55346 | 32 ft | 12 kts | 304° |
| 2026-04-20 20:49 | 58.35310 | -134.55498 | 33 ft | 12 kts | 284° |
| 2026-04-20 20:49 | 58.35331 | -134.55649 | 33 ft | 13 kts | 285° |
| 2026-04-20 20:49 | 58.35356 | -134.55827 | 31 ft | 15 kts | 284° |
| 2026-04-20 20:50 | 58.35381 | -134.56012 | 33 ft | 14 kts | 285° |
| 2026-04-20 20:50 | 58.35407 | -134.56191 | 33 ft | 15 kts | 285° |
| 2026-04-20 20:50 | 58.35426 | -134.56330 | 33 ft | 18 kts | 285° |
| 2026-04-20 20:50 | 58.35461 | -134.56582 | 33 ft | 22 kts | 285° |
| 2026-04-20 20:51 | 58.35503 | -134.56885 | 33 ft | 24 kts | 284° |
| 2026-04-20 20:51 | 58.35545 | -134.57189 | 32 ft | 23 kts | 284° |
| 2026-04-20 20:51 | 58.35585 | -134.57472 | 33 ft | 22 kts | 285° |
| 2026-04-20 20:51 | 58.35624 | -134.57752 | 33 ft | 22 kts | 285° |
| 2026-04-20 20:52 | 58.35662 | -134.58024 | 33 ft | 21 kts | 284° |
| 2026-04-20 20:52 | 58.35696 | -134.58265 | 33 ft | 12 kts | 288° |
| 2026-04-20 20:52 | 58.35758 | -134.58312 | 31 ft | 9 kts | 333° |
| 2026-04-20 20:52 | 58.35784 | -134.58420 | 33 ft | 9 kts | 284° |
| 2026-04-20 20:53 | 58.35806 | -134.58502 | 32 ft | 5 kts | 338° |
| 2026-04-20 20:53 | 58.35818 | -134.58491 | 33 ft | 2 kts | 46° |
| 2026-04-20 20:53 | 58.35828 | -134.58469 | 31 ft | 3 kts | 48° |
| 2026-04-20 20:53 | 58.35840 | -134.58444 | 32 ft | 2 kts | 48° |
| 2026-04-20 20:54 | 58.35846 | -134.58431 | 33 ft | 1 kts | 48° |
| 2026-04-20 20:54 | 58.35848 | -134.58427 | 33 ft | 0 kts | 48° |